sensor_id;sensor_type;location;lat;lon;timestamp;temperature;humidity
9881;DHT22;4979;51.014;6.678;2024-02-14T00:01:17;9.00;99.90
9881;DHT22;4979;51.014;6.678;2024-02-14T00:03:44;9.00;99.90
9881;DHT22;4979;51.014;6.678;2024-02-14T00:06:09;9.00;99.90
9881;DHT22;4979;51.014;6.678;2024-02-14T00:08:37;9.00;99.90
9881;DHT22;4979;51.014;6.678;2024-02-14T00:11:03;9.00;99.90
9881;DHT22;4979;51.014;6.678;2024-02-14T00:13:28;9.00;99.90
9881;DHT22;4979;51.014;6.678;2024-02-14T00:15:54;9.00;99.90
9881;DHT22;4979;51.014;6.678;2024-02-14T00:18:22;9.00;99.90
9881;DHT22;4979;51.014;6.678;2024-02-14T00:20:48;9.00;99.90
9881;DHT22;4979;51.014;6.678;2024-02-14T00:23:14;9.00;99.90
9881;DHT22;4979;51.014;6.678;2024-02-14T00:25:39;9.00;99.90
9881;DHT22;4979;51.014;6.678;2024-02-14T00:28:05;9.00;99.90
9881;DHT22;4979;51.014;6.678;2024-02-14T00:30:31;9.00;99.90
9881;DHT22;4979;51.014;6.678;2024-02-14T00:32:56;9.00;99.90
9881;DHT22;4979;51.014;6.678;2024-02-14T00:35:22;9.00;99.90
9881;DHT22;4979;51.014;6.678;2024-02-14T00:37:48;9.00;99.90
9881;DHT22;4979;51.014;6.678;2024-02-14T00:40:13;9.00;99.90
9881;DHT22;4979;51.014;6.678;2024-02-14T00:42:40;9.00;99.90
9881;DHT22;4979;51.014;6.678;2024-02-14T00:45:06;9.00;99.90
9881;DHT22;4979;51.014;6.678;2024-02-14T00:47:34;9.10;99.90
9881;DHT22;4979;51.014;6.678;2024-02-14T00:50:00;9.10;99.90
9881;DHT22;4979;51.014;6.678;2024-02-14T00:52:26;9.10;99.90
9881;DHT22;4979;51.014;6.678;2024-02-14T00:54:52;9.20;99.90
9881;DHT22;4979;51.014;6.678;2024-02-14T00:57:17;9.20;99.90
9881;DHT22;4979;51.014;6.678;2024-02-14T00:59:44;9.20;99.90
9881;DHT22;4979;51.014;6.678;2024-02-14T01:02:10;9.20;99.90
9881;DHT22;4979;51.014;6.678;2024-02-14T01:04:36;9.20;99.90
9881;DHT22;4979;51.014;6.678;2024-02-14T01:07:03;9.30;99.90
9881;DHT22;4979;51.014;6.678;2024-02-14T01:09:29;9.20;99.90
9881;DHT22;4979;51.014;6.678;2024-02-14T01:11:54;9.30;99.90
9881;DHT22;4979;51.014;6.678;2024-02-14T01:14:20;9.30;99.90
9881;DHT22;4979;51.014;6.678;2024-02-14T01:16:47;9.30;99.90
9881;DHT22;4979;51.014;6.678;2024-02-14T01:19:13;9.30;99.90
9881;DHT22;4979;51.014;6.678;2024-02-14T01:21:38;9.30;99.90
9881;DHT22;4979;51.014;6.678;2024-02-14T01:24:04;9.40;99.90
9881;DHT22;4979;51.014;6.678;2024-02-14T01:26:31;9.40;99.90
9881;DHT22;4979;51.014;6.678;2024-02-14T01:28:57;9.40;99.90
9881;DHT22;4979;51.014;6.678;2024-02-14T01:31:25;9.40;99.90
9881;DHT22;4979;51.014;6.678;2024-02-14T01:33:51;9.40;99.90
9881;DHT22;4979;51.014;6.678;2024-02-14T01:36:16;9.40;99.90
9881;DHT22;4979;51.014;6.678;2024-02-14T01:38:42;9.30;99.90
9881;DHT22;4979;51.014;6.678;2024-02-14T01:41:08;9.40;99.90
9881;DHT22;4979;51.014;6.678;2024-02-14T01:43:33;9.40;99.90
9881;DHT22;4979;51.014;6.678;2024-02-14T01:46:06;9.40;99.90
9881;DHT22;4979;51.014;6.678;2024-02-14T01:48:32;9.50;99.90
9881;DHT22;4979;51.014;6.678;2024-02-14T01:50:59;9.50;99.90
9881;DHT22;4979;51.014;6.678;2024-02-14T01:53:26;9.50;99.90
9881;DHT22;4979;51.014;6.678;2024-02-14T01:55:55;9.60;99.90
9881;DHT22;4979;51.014;6.678;2024-02-14T01:58:21;9.60;99.90
9881;DHT22;4979;51.014;6.678;2024-02-14T02:00:47;9.60;99.90
9881;DHT22;4979;51.014;6.678;2024-02-14T02:03:14;9.60;99.90
9881;DHT22;4979;51.014;6.678;2024-02-14T02:05:40;9.60;99.90
9881;DHT22;4979;51.014;6.678;2024-02-14T02:08:08;9.70;99.90
9881;DHT22;4979;51.014;6.678;2024-02-14T02:10:35;9.70;99.90
9881;DHT22;4979;51.014;6.678;2024-02-14T02:13:00;9.70;99.90
9881;DHT22;4979;51.014;6.678;2024-02-14T02:15:26;9.70;99.90
9881;DHT22;4979;51.014;6.678;2024-02-14T02:17:54;9.70;99.90
9881;DHT22;4979;51.014;6.678;2024-02-14T02:20:20;9.70;99.90
9881;DHT22;4979;51.014;6.678;2024-02-14T02:22:48;9.70;99.90
9881;DHT22;4979;51.014;6.678;2024-02-14T02:25:15;9.80;99.90
9881;DHT22;4979;51.014;6.678;2024-02-14T02:27:40;9.70;99.90
9881;DHT22;4979;51.014;6.678;2024-02-14T02:30:07;9.80;99.90
9881;DHT22;4979;51.014;6.678;2024-02-14T02:32:33;9.80;99.90
9881;DHT22;4979;51.014;6.678;2024-02-14T02:34:59;9.80;99.90
9881;DHT22;4979;51.014;6.678;2024-02-14T02:37:26;9.80;99.90
9881;DHT22;4979;51.014;6.678;2024-02-14T02:39:54;9.80;99.90
9881;DHT22;4979;51.014;6.678;2024-02-14T02:42:19;9.80;99.90
9881;DHT22;4979;51.014;6.678;2024-02-14T02:44:50;9.80;99.90
9881;DHT22;4979;51.014;6.678;2024-02-14T02:47:15;9.80;99.90
9881;DHT22;4979;51.014;6.678;2024-02-14T02:49:45;9.80;99.90
9881;DHT22;4979;51.014;6.678;2024-02-14T02:52:11;9.80;99.90
9881;DHT22;4979;51.014;6.678;2024-02-14T02:54:37;9.70;99.90
9881;DHT22;4979;51.014;6.678;2024-02-14T02:57:06;9.80;99.90
9881;DHT22;4979;51.014;6.678;2024-02-14T02:59:32;9.80;99.90
9881;DHT22;4979;51.014;6.678;2024-02-14T03:01:58;9.80;99.90
9881;DHT22;4979;51.014;6.678;2024-02-14T03:04:24;9.80;99.90
9881;DHT22;4979;51.014;6.678;2024-02-14T03:06:50;9.80;99.90
9881;DHT22;4979;51.014;6.678;2024-02-14T03:09:15;9.80;99.90
9881;DHT22;4979;51.014;6.678;2024-02-14T03:11:46;9.80;99.90
9881;DHT22;4979;51.014;6.678;2024-02-14T03:14:12;9.80;99.90
9881;DHT22;4979;51.014;6.678;2024-02-14T03:16:37;9.80;99.90
9881;DHT22;4979;51.014;6.678;2024-02-14T03:19:04;9.80;99.90
9881;DHT22;4979;51.014;6.678;2024-02-14T03:21:31;10.60;99.90
9881;DHT22;4979;51.014;6.678;2024-02-14T03:23:58;9.80;99.90
9881;DHT22;4979;51.014;6.678;2024-02-14T03:26:24;9.80;99.90
9881;DHT22;4979;51.014;6.678;2024-02-14T03:28:49;9.80;99.90
9881;DHT22;4979;51.014;6.678;2024-02-14T03:31:15;9.80;99.90
9881;DHT22;4979;51.014;6.678;2024-02-14T03:33:41;9.80;99.90
9881;DHT22;4979;51.014;6.678;2024-02-14T03:36:07;9.80;99.90
9881;DHT22;4979;51.014;6.678;2024-02-14T03:38:32;9.80;99.90
9881;DHT22;4979;51.014;6.678;2024-02-14T03:40:58;9.80;99.90
9881;DHT22;4979;51.014;6.678;2024-02-14T03:43:23;9.80;99.90
9881;DHT22;4979;51.014;6.678;2024-02-14T03:45:49;9.80;99.90
9881;DHT22;4979;51.014;6.678;2024-02-14T03:48:16;9.80;99.90
9881;DHT22;4979;51.014;6.678;2024-02-14T03:50:42;9.80;99.90
9881;DHT22;4979;51.014;6.678;2024-02-14T03:53:08;9.80;99.90
9881;DHT22;4979;51.014;6.678;2024-02-14T03:55:36;9.80;99.90
9881;DHT22;4979;51.014;6.678;2024-02-14T03:58:02;9.80;99.90
9881;DHT22;4979;51.014;6.678;2024-02-14T04:00:29;9.80;99.90
9881;DHT22;4979;51.014;6.678;2024-02-14T04:02:55;9.80;99.90
9881;DHT22;4979;51.014;6.678;2024-02-14T04:05:25;9.80;99.90
9881;DHT22;4979;51.014;6.678;2024-02-14T04:07:52;9.80;99.90
9881;DHT22;4979;51.014;6.678;2024-02-14T04:10:19;9.80;99.90
9881;DHT22;4979;51.014;6.678;2024-02-14T04:12:45;9.80;99.90
9881;DHT22;4979;51.014;6.678;2024-02-14T04:15:11;9.70;99.90
9881;DHT22;4979;51.014;6.678;2024-02-14T04:17:36;9.70;99.90
9881;DHT22;4979;51.014;6.678;2024-02-14T04:20:02;9.70;99.90
9881;DHT22;4979;51.014;6.678;2024-02-14T04:22:28;9.70;99.90
9881;DHT22;4979;51.014;6.678;2024-02-14T04:24:53;9.70;99.90
9881;DHT22;4979;51.014;6.678;2024-02-14T04:27:19;9.70;99.90
9881;DHT22;4979;51.014;6.678;2024-02-14T04:29:47;9.70;99.90
9881;DHT22;4979;51.014;6.678;2024-02-14T04:32:14;9.70;99.90
9881;DHT22;4979;51.014;6.678;2024-02-14T04:34:39;9.70;99.90
9881;DHT22;4979;51.014;6.678;2024-02-14T04:37:08;9.80;99.90
9881;DHT22;4979;51.014;6.678;2024-02-14T04:39:38;9.70;99.90
9881;DHT22;4979;51.014;6.678;2024-02-14T04:42:03;9.70;99.90
9881;DHT22;4979;51.014;6.678;2024-02-14T04:44:30;9.70;99.90
9881;DHT22;4979;51.014;6.678;2024-02-14T04:46:57;9.70;99.90
9881;DHT22;4979;51.014;6.678;2024-02-14T04:49:24;9.70;99.90
9881;DHT22;4979;51.014;6.678;2024-02-14T04:51:53;9.70;99.90
9881;DHT22;4979;51.014;6.678;2024-02-14T04:54:19;9.70;99.90
9881;DHT22;4979;51.014;6.678;2024-02-14T04:56:44;9.80;99.90
9881;DHT22;4979;51.014;6.678;2024-02-14T04:59:13;9.80;99.90
9881;DHT22;4979;51.014;6.678;2024-02-14T05:01:39;9.80;99.90
9881;DHT22;4979;51.014;6.678;2024-02-14T05:04:06;9.80;99.90
9881;DHT22;4979;51.014;6.678;2024-02-14T05:06:32;9.80;99.90
9881;DHT22;4979;51.014;6.678;2024-02-14T05:08:58;9.90;99.90
9881;DHT22;4979;51.014;6.678;2024-02-14T05:11:23;9.90;99.90
9881;DHT22;4979;51.014;6.678;2024-02-14T05:13:49;9.80;99.90
9881;DHT22;4979;51.014;6.678;2024-02-14T05:16:21;9.80;99.90
9881;DHT22;4979;51.014;6.678;2024-02-14T05:18:46;9.80;99.90
9881;DHT22;4979;51.014;6.678;2024-02-14T05:21:13;9.70;99.90
9881;DHT22;4979;51.014;6.678;2024-02-14T05:23:38;9.70;99.90
9881;DHT22;4979;51.014;6.678;2024-02-14T05:26:04;9.70;99.90
9881;DHT22;4979;51.014;6.678;2024-02-14T05:28:30;11.10;99.90
9881;DHT22;4979;51.014;6.678;2024-02-14T05:30:57;9.70;99.90
9881;DHT22;4979;51.014;6.678;2024-02-14T05:33:22;9.70;99.90
9881;DHT22;4979;51.014;6.678;2024-02-14T05:35:49;9.70;99.90
9881;DHT22;4979;51.014;6.678;2024-02-14T05:38:14;9.80;99.90
9881;DHT22;4979;51.014;6.678;2024-02-14T05:40:40;9.80;99.90
9881;DHT22;4979;51.014;6.678;2024-02-14T05:43:07;9.80;99.90
9881;DHT22;4979;51.014;6.678;2024-02-14T05:45:33;9.70;99.90
9881;DHT22;4979;51.014;6.678;2024-02-14T05:47:58;9.70;99.90
9881;DHT22;4979;51.014;6.678;2024-02-14T05:50:24;9.70;99.90
9881;DHT22;4979;51.014;6.678;2024-02-14T05:52:49;9.70;99.90
9881;DHT22;4979;51.014;6.678;2024-02-14T05:55:15;9.70;99.90
9881;DHT22;4979;51.014;6.678;2024-02-14T05:57:41;9.70;99.90
9881;DHT22;4979;51.014;6.678;2024-02-14T06:00:07;9.70;99.90
9881;DHT22;4979;51.014;6.678;2024-02-14T06:02:35;9.70;99.90
9881;DHT22;4979;51.014;6.678;2024-02-14T06:05:00;9.70;99.90
9881;DHT22;4979;51.014;6.678;2024-02-14T06:07:26;9.70;99.90
9881;DHT22;4979;51.014;6.678;2024-02-14T06:09:51;9.80;99.90
9881;DHT22;4979;51.014;6.678;2024-02-14T06:12:17;9.80;99.90
9881;DHT22;4979;51.014;6.678;2024-02-14T06:14:42;9.80;99.90
9881;DHT22;4979;51.014;6.678;2024-02-14T06:17:08;9.80;99.90
9881;DHT22;4979;51.014;6.678;2024-02-14T06:19:33;9.80;99.90
9881;DHT22;4979;51.014;6.678;2024-02-14T06:22:00;9.80;99.90
9881;DHT22;4979;51.014;6.678;2024-02-14T06:24:26;9.90;99.90
9881;DHT22;4979;51.014;6.678;2024-02-14T06:26:51;9.90;99.90
9881;DHT22;4979;51.014;6.678;2024-02-14T06:29:17;9.90;99.90
9881;DHT22;4979;51.014;6.678;2024-02-14T06:31:42;9.90;99.90
9881;DHT22;4979;51.014;6.678;2024-02-14T06:34:08;9.90;99.90
9881;DHT22;4979;51.014;6.678;2024-02-14T06:36:34;9.90;99.90
9881;DHT22;4979;51.014;6.678;2024-02-14T06:38:59;9.90;99.90
9881;DHT22;4979;51.014;6.678;2024-02-14T06:41:25;9.90;99.90
9881;DHT22;4979;51.014;6.678;2024-02-14T06:43:50;9.90;99.90
9881;DHT22;4979;51.014;6.678;2024-02-14T06:46:16;9.90;99.90
9881;DHT22;4979;51.014;6.678;2024-02-14T06:48:41;9.90;99.90
9881;DHT22;4979;51.014;6.678;2024-02-14T06:51:07;9.90;99.90
9881;DHT22;4979;51.014;6.678;2024-02-14T06:53:33;10.00;99.90
9881;DHT22;4979;51.014;6.678;2024-02-14T06:55:59;10.00;99.90
9881;DHT22;4979;51.014;6.678;2024-02-14T06:58:24;10.00;99.90
9881;DHT22;4979;51.014;6.678;2024-02-14T07:00:50;10.00;99.90
9881;DHT22;4979;51.014;6.678;2024-02-14T07:03:15;10.00;99.90
9881;DHT22;4979;51.014;6.678;2024-02-14T07:05:41;10.10;99.90
9881;DHT22;4979;51.014;6.678;2024-02-14T07:08:07;10.10;99.90
9881;DHT22;4979;51.014;6.678;2024-02-14T07:10:33;10.10;99.90
9881;DHT22;4979;51.014;6.678;2024-02-14T07:12:58;10.10;99.90
9881;DHT22;4979;51.014;6.678;2024-02-14T07:15:24;10.10;99.90
9881;DHT22;4979;51.014;6.678;2024-02-14T07:17:54;10.10;99.90
9881;DHT22;4979;51.014;6.678;2024-02-14T07:20:20;10.20;99.90
9881;DHT22;4979;51.014;6.678;2024-02-14T07:22:46;10.20;99.90
9881;DHT22;4979;51.014;6.678;2024-02-14T07:25:13;10.20;99.90
9881;DHT22;4979;51.014;6.678;2024-02-14T07:27:39;10.20;99.90
9881;DHT22;4979;51.014;6.678;2024-02-14T07:30:05;10.30;99.90
9881;DHT22;4979;51.014;6.678;2024-02-14T07:32:31;10.30;99.90
9881;DHT22;4979;51.014;6.678;2024-02-14T07:34:56;10.30;99.90
9881;DHT22;4979;51.014;6.678;2024-02-14T07:37:22;10.30;99.90
9881;DHT22;4979;51.014;6.678;2024-02-14T07:39:47;10.30;99.90
9881;DHT22;4979;51.014;6.678;2024-02-14T07:42:13;10.30;99.90
9881;DHT22;4979;51.014;6.678;2024-02-14T07:44:39;10.30;99.90
9881;DHT22;4979;51.014;6.678;2024-02-14T07:47:04;10.40;99.90
9881;DHT22;4979;51.014;6.678;2024-02-14T07:49:30;10.40;99.90
9881;DHT22;4979;51.014;6.678;2024-02-14T07:51:56;10.40;99.90
9881;DHT22;4979;51.014;6.678;2024-02-14T07:54:21;10.40;99.90
9881;DHT22;4979;51.014;6.678;2024-02-14T07:56:47;10.40;99.90
9881;DHT22;4979;51.014;6.678;2024-02-14T07:59:13;10.50;99.90
9881;DHT22;4979;51.014;6.678;2024-02-14T08:01:38;10.50;99.90
9881;DHT22;4979;51.014;6.678;2024-02-14T08:04:04;10.50;99.90
9881;DHT22;4979;51.014;6.678;2024-02-14T08:06:30;10.50;99.90
9881;DHT22;4979;51.014;6.678;2024-02-14T08:08:55;10.50;99.90
9881;DHT22;4979;51.014;6.678;2024-02-14T08:11:27;10.60;99.90
9881;DHT22;4979;51.014;6.678;2024-02-14T08:13:52;10.60;99.90
9881;DHT22;4979;51.014;6.678;2024-02-14T08:16:18;10.60;99.90
9881;DHT22;4979;51.014;6.678;2024-02-14T08:18:43;10.70;99.90
9881;DHT22;4979;51.014;6.678;2024-02-14T08:21:09;10.70;99.90
9881;DHT22;4979;51.014;6.678;2024-02-14T08:23:35;10.80;99.90
9881;DHT22;4979;51.014;6.678;2024-02-14T08:26:04;10.80;99.90
9881;DHT22;4979;51.014;6.678;2024-02-14T08:28:38;10.90;99.90
9881;DHT22;4979;51.014;6.678;2024-02-14T08:31:10;10.90;99.90
9881;DHT22;4979;51.014;6.678;2024-02-14T08:33:36;11.00;99.90
9881;DHT22;4979;51.014;6.678;2024-02-14T08:36:03;10.90;99.90
9881;DHT22;4979;51.014;6.678;2024-02-14T08:38:28;11.00;99.90
9881;DHT22;4979;51.014;6.678;2024-02-14T08:40:54;11.00;99.90
9881;DHT22;4979;51.014;6.678;2024-02-14T08:43:19;11.10;99.90
9881;DHT22;4979;51.014;6.678;2024-02-14T08:45:45;11.10;99.90
9881;DHT22;4979;51.014;6.678;2024-02-14T08:48:11;11.10;99.90
9881;DHT22;4979;51.014;6.678;2024-02-14T08:50:36;11.20;99.90
9881;DHT22;4979;51.014;6.678;2024-02-14T08:53:02;11.20;99.90
9881;DHT22;4979;51.014;6.678;2024-02-14T08:55:27;11.20;99.90
9881;DHT22;4979;51.014;6.678;2024-02-14T08:57:53;11.20;99.90
9881;DHT22;4979;51.014;6.678;2024-02-14T09:00:19;11.20;99.90
9881;DHT22;4979;51.014;6.678;2024-02-14T09:02:45;11.30;99.90
9881;DHT22;4979;51.014;6.678;2024-02-14T09:05:12;11.30;99.90
9881;DHT22;4979;51.014;6.678;2024-02-14T09:07:38;11.40;99.90
9881;DHT22;4979;51.014;6.678;2024-02-14T09:10:04;11.40;99.90
9881;DHT22;4979;51.014;6.678;2024-02-14T09:12:31;11.40;99.90
9881;DHT22;4979;51.014;6.678;2024-02-14T09:14:57;11.50;99.90
9881;DHT22;4979;51.014;6.678;2024-02-14T09:17:23;11.60;99.90
9881;DHT22;4979;51.014;6.678;2024-02-14T09:19:48;11.70;99.90
9881;DHT22;4979;51.014;6.678;2024-02-14T09:22:14;11.80;99.90
9881;DHT22;4979;51.014;6.678;2024-02-14T09:24:46;11.90;99.90
9881;DHT22;4979;51.014;6.678;2024-02-14T09:27:12;12.00;99.90
9881;DHT22;4979;51.014;6.678;2024-02-14T09:29:38;12.00;99.90
9881;DHT22;4979;51.014;6.678;2024-02-14T09:32:04;11.90;99.90
9881;DHT22;4979;51.014;6.678;2024-02-14T09:34:29;11.90;99.90
9881;DHT22;4979;51.014;6.678;2024-02-14T09:36:55;12.00;99.90
9881;DHT22;4979;51.014;6.678;2024-02-14T09:39:22;12.00;99.90
9881;DHT22;4979;51.014;6.678;2024-02-14T09:41:59;12.00;99.90
9881;DHT22;4979;51.014;6.678;2024-02-14T09:44:31;12.00;99.90
9881;DHT22;4979;51.014;6.678;2024-02-14T09:46:57;12.10;99.90
9881;DHT22;4979;51.014;6.678;2024-02-14T09:49:24;12.10;99.90
9881;DHT22;4979;51.014;6.678;2024-02-14T09:51:51;12.10;99.90
9881;DHT22;4979;51.014;6.678;2024-02-14T09:54:17;12.00;99.90
9881;DHT22;4979;51.014;6.678;2024-02-14T09:56:49;12.00;99.90
9881;DHT22;4979;51.014;6.678;2024-02-14T09:59:16;12.10;99.90
9881;DHT22;4979;51.014;6.678;2024-02-14T10:01:42;12.00;99.90
9881;DHT22;4979;51.014;6.678;2024-02-14T10:04:08;12.00;99.90
9881;DHT22;4979;51.014;6.678;2024-02-14T10:06:35;12.00;99.90
9881;DHT22;4979;51.014;6.678;2024-02-14T10:09:02;12.00;99.90
9881;DHT22;4979;51.014;6.678;2024-02-14T10:11:28;13.40;99.90
9881;DHT22;4979;51.014;6.678;2024-02-14T10:13:53;12.00;99.90
9881;DHT22;4979;51.014;6.678;2024-02-14T10:16:22;12.00;99.90
9881;DHT22;4979;51.014;6.678;2024-02-14T10:18:48;12.00;99.90
9881;DHT22;4979;51.014;6.678;2024-02-14T10:21:16;12.00;99.90
9881;DHT22;4979;51.014;6.678;2024-02-14T10:23:44;12.00;99.90
9881;DHT22;4979;51.014;6.678;2024-02-14T10:26:10;12.00;99.90
9881;DHT22;4979;51.014;6.678;2024-02-14T10:28:36;12.00;99.90
9881;DHT22;4979;51.014;6.678;2024-02-14T10:31:02;12.00;99.90
9881;DHT22;4979;51.014;6.678;2024-02-14T10:33:28;12.10;99.90
9881;DHT22;4979;51.014;6.678;2024-02-14T10:35:55;12.10;99.90
9881;DHT22;4979;51.014;6.678;2024-02-14T10:38:23;12.10;99.90
9881;DHT22;4979;51.014;6.678;2024-02-14T10:40:49;12.20;99.90
9881;DHT22;4979;51.014;6.678;2024-02-14T10:43:16;12.20;99.90
9881;DHT22;4979;51.014;6.678;2024-02-14T10:45:42;12.30;99.90
9881;DHT22;4979;51.014;6.678;2024-02-14T10:48:11;12.20;99.90
9881;DHT22;4979;51.014;6.678;2024-02-14T10:50:40;12.20;99.90
9881;DHT22;4979;51.014;6.678;2024-02-14T10:53:09;12.20;99.90
9881;DHT22;4979;51.014;6.678;2024-02-14T10:55:36;12.10;99.90
9881;DHT22;4979;51.014;6.678;2024-02-14T10:58:04;12.10;99.90
9881;DHT22;4979;51.014;6.678;2024-02-14T11:00:30;12.00;99.90
9881;DHT22;4979;51.014;6.678;2024-02-14T11:02:58;12.00;99.90
9881;DHT22;4979;51.014;6.678;2024-02-14T11:05:23;12.00;99.90
9881;DHT22;4979;51.014;6.678;2024-02-14T11:07:50;12.00;99.90
9881;DHT22;4979;51.014;6.678;2024-02-14T11:10:19;12.10;99.90
9881;DHT22;4979;51.014;6.678;2024-02-14T11:12:47;12.20;99.90
9881;DHT22;4979;51.014;6.678;2024-02-14T11:15:22;12.30;99.90
9881;DHT22;4979;51.014;6.678;2024-02-14T11:17:48;12.50;99.90
9881;DHT22;4979;51.014;6.678;2024-02-14T11:20:16;12.60;99.90
9881;DHT22;4979;51.014;6.678;2024-02-14T11:23:02;12.60;99.90
9881;DHT22;4979;51.014;6.678;2024-02-14T11:25:29;12.60;99.90
9881;DHT22;4979;51.014;6.678;2024-02-14T11:28:00;12.60;99.90
9881;DHT22;4979;51.014;6.678;2024-02-14T11:30:32;12.70;99.90
9881;DHT22;4979;51.014;6.678;2024-02-14T11:33:12;12.80;99.90
9881;DHT22;4979;51.014;6.678;2024-02-14T11:35:41;12.80;99.90
9881;DHT22;4979;51.014;6.678;2024-02-14T11:38:08;12.90;99.90
9881;DHT22;4979;51.014;6.678;2024-02-14T11:40:35;12.80;99.90
9881;DHT22;4979;51.014;6.678;2024-02-14T11:43:00;12.80;99.90
9881;DHT22;4979;51.014;6.678;2024-02-14T11:45:27;12.70;99.90
9881;DHT22;4979;51.014;6.678;2024-02-14T11:47:54;12.50;99.90
9881;DHT22;4979;51.014;6.678;2024-02-14T11:50:20;12.50;99.90
9881;DHT22;4979;51.014;6.678;2024-02-14T11:52:46;12.60;99.90
9881;DHT22;4979;51.014;6.678;2024-02-14T11:55:12;12.60;99.90
9881;DHT22;4979;51.014;6.678;2024-02-14T11:57:41;12.60;99.90
9881;DHT22;4979;51.014;6.678;2024-02-14T12:00:08;12.60;99.90
9881;DHT22;4979;51.014;6.678;2024-02-14T12:02:33;12.70;99.90
9881;DHT22;4979;51.014;6.678;2024-02-14T12:04:59;12.70;99.90
9881;DHT22;4979;51.014;6.678;2024-02-14T12:07:25;12.70;99.90
9881;DHT22;4979;51.014;6.678;2024-02-14T12:09:51;12.70;99.90
9881;DHT22;4979;51.014;6.678;2024-02-14T12:12:17;12.70;99.90
9881;DHT22;4979;51.014;6.678;2024-02-14T12:14:45;12.60;99.90
9881;DHT22;4979;51.014;6.678;2024-02-14T12:17:16;12.60;99.90
9881;DHT22;4979;51.014;6.678;2024-02-14T12:19:44;12.70;99.90
9881;DHT22;4979;51.014;6.678;2024-02-14T12:22:10;12.70;99.90
9881;DHT22;4979;51.014;6.678;2024-02-14T12:24:46;12.70;99.90
9881;DHT22;4979;51.014;6.678;2024-02-14T12:27:17;12.70;99.90
9881;DHT22;4979;51.014;6.678;2024-02-14T12:29:45;12.80;99.90
9881;DHT22;4979;51.014;6.678;2024-02-14T12:32:11;12.70;99.90
9881;DHT22;4979;51.014;6.678;2024-02-14T12:34:44;12.70;99.90
9881;DHT22;4979;51.014;6.678;2024-02-14T12:37:10;12.70;99.90
9881;DHT22;4979;51.014;6.678;2024-02-14T12:39:36;12.70;99.90
9881;DHT22;4979;51.014;6.678;2024-02-14T12:42:03;12.70;99.90
9881;DHT22;4979;51.014;6.678;2024-02-14T12:44:29;12.80;99.90
9881;DHT22;4979;51.014;6.678;2024-02-14T12:46:54;12.90;99.90
9881;DHT22;4979;51.014;6.678;2024-02-14T12:49:20;12.90;99.90
9881;DHT22;4979;51.014;6.678;2024-02-14T12:51:46;12.90;99.90
9881;DHT22;4979;51.014;6.678;2024-02-14T12:54:12;13.00;99.90
9881;DHT22;4979;51.014;6.678;2024-02-14T12:56:40;13.00;99.90
9881;DHT22;4979;51.014;6.678;2024-02-14T12:59:05;13.00;99.90
9881;DHT22;4979;51.014;6.678;2024-02-14T13:01:31;13.00;99.90
9881;DHT22;4979;51.014;6.678;2024-02-14T13:03:57;13.00;99.90
9881;DHT22;4979;51.014;6.678;2024-02-14T13:06:23;12.90;99.90
9881;DHT22;4979;51.014;6.678;2024-02-14T13:08:49;12.90;99.90
9881;DHT22;4979;51.014;6.678;2024-02-14T13:11:15;12.90;99.90
9881;DHT22;4979;51.014;6.678;2024-02-14T13:13:42;12.90;99.90
9881;DHT22;4979;51.014;6.678;2024-02-14T13:16:08;12.90;99.90
9881;DHT22;4979;51.014;6.678;2024-02-14T13:18:33;12.90;99.90
9881;DHT22;4979;51.014;6.678;2024-02-14T13:21:00;13.00;99.90
9881;DHT22;4979;51.014;6.678;2024-02-14T13:23:26;13.00;99.90
9881;DHT22;4979;51.014;6.678;2024-02-14T13:25:52;12.90;99.90
9881;DHT22;4979;51.014;6.678;2024-02-14T13:28:17;12.90;99.90
9881;DHT22;4979;51.014;6.678;2024-02-14T13:30:44;12.90;99.90
9881;DHT22;4979;51.014;6.678;2024-02-14T13:33:10;12.90;99.90
9881;DHT22;4979;51.014;6.678;2024-02-14T13:35:37;12.80;99.90
9881;DHT22;4979;51.014;6.678;2024-02-14T13:38:04;12.80;99.90
9881;DHT22;4979;51.014;6.678;2024-02-14T13:40:31;12.80;99.90
9881;DHT22;4979;51.014;6.678;2024-02-14T13:42:57;12.70;99.90
9881;DHT22;4979;51.014;6.678;2024-02-14T13:45:24;12.70;99.90
9881;DHT22;4979;51.014;6.678;2024-02-14T13:47:51;12.70;99.90
9881;DHT22;4979;51.014;6.678;2024-02-14T13:50:18;12.70;99.90
9881;DHT22;4979;51.014;6.678;2024-02-14T13:52:43;12.70;99.90
9881;DHT22;4979;51.014;6.678;2024-02-14T13:55:10;12.60;99.90
9881;DHT22;4979;51.014;6.678;2024-02-14T13:57:39;12.60;99.90
9881;DHT22;4979;51.014;6.678;2024-02-14T14:00:09;12.60;99.90
9881;DHT22;4979;51.014;6.678;2024-02-14T14:02:35;12.50;99.90
9881;DHT22;4979;51.014;6.678;2024-02-14T14:05:06;12.50;99.90
9881;DHT22;4979;51.014;6.678;2024-02-14T14:07:34;12.40;99.90
9881;DHT22;4979;51.014;6.678;2024-02-14T14:10:02;12.40;99.90
9881;DHT22;4979;51.014;6.678;2024-02-14T14:12:28;12.40;99.90
9881;DHT22;4979;51.014;6.678;2024-02-14T14:14:53;12.40;99.90
9881;DHT22;4979;51.014;6.678;2024-02-14T14:17:19;12.40;99.90
9881;DHT22;4979;51.014;6.678;2024-02-14T14:19:44;12.40;99.90
9881;DHT22;4979;51.014;6.678;2024-02-14T14:22:10;12.30;99.90
9881;DHT22;4979;51.014;6.678;2024-02-14T14:24:36;12.30;99.90
9881;DHT22;4979;51.014;6.678;2024-02-14T14:27:01;12.30;99.90
9881;DHT22;4979;51.014;6.678;2024-02-14T14:29:27;12.30;99.90
9881;DHT22;4979;51.014;6.678;2024-02-14T14:31:53;12.20;99.90
9881;DHT22;4979;51.014;6.678;2024-02-14T14:34:19;12.20;99.90
9881;DHT22;4979;51.014;6.678;2024-02-14T14:36:45;12.20;99.90
9881;DHT22;4979;51.014;6.678;2024-02-14T14:39:11;12.20;99.90
9881;DHT22;4979;51.014;6.678;2024-02-14T14:41:37;12.20;99.90
9881;DHT22;4979;51.014;6.678;2024-02-14T14:44:03;12.10;99.90
9881;DHT22;4979;51.014;6.678;2024-02-14T14:46:29;12.10;99.90
9881;DHT22;4979;51.014;6.678;2024-02-14T14:48:57;12.10;99.90
9881;DHT22;4979;51.014;6.678;2024-02-14T14:51:22;12.10;99.90
9881;DHT22;4979;51.014;6.678;2024-02-14T14:53:49;12.10;99.90
9881;DHT22;4979;51.014;6.678;2024-02-14T14:56:15;12.10;99.90
9881;DHT22;4979;51.014;6.678;2024-02-14T14:58:40;12.10;99.90
9881;DHT22;4979;51.014;6.678;2024-02-14T15:01:07;12.10;99.90
9881;DHT22;4979;51.014;6.678;2024-02-14T15:03:34;12.10;99.90
9881;DHT22;4979;51.014;6.678;2024-02-14T15:06:00;12.10;99.90
9881;DHT22;4979;51.014;6.678;2024-02-14T15:08:26;12.10;99.90
9881;DHT22;4979;51.014;6.678;2024-02-14T15:10:53;12.10;99.90
9881;DHT22;4979;51.014;6.678;2024-02-14T15:13:21;12.10;99.90
9881;DHT22;4979;51.014;6.678;2024-02-14T15:15:47;12.10;99.90
9881;DHT22;4979;51.014;6.678;2024-02-14T15:18:12;12.10;99.90
9881;DHT22;4979;51.014;6.678;2024-02-14T15:20:38;12.10;99.90
9881;DHT22;4979;51.014;6.678;2024-02-14T15:23:04;12.10;99.90
9881;DHT22;4979;51.014;6.678;2024-02-14T15:25:30;12.10;99.90
9881;DHT22;4979;51.014;6.678;2024-02-14T15:27:56;12.10;99.90
9881;DHT22;4979;51.014;6.678;2024-02-14T15:30:24;12.10;99.90
9881;DHT22;4979;51.014;6.678;2024-02-14T15:33:09;12.20;99.90
9881;DHT22;4979;51.014;6.678;2024-02-14T15:35:51;12.20;99.90
9881;DHT22;4979;51.014;6.678;2024-02-14T15:38:20;12.20;99.90
9881;DHT22;4979;51.014;6.678;2024-02-14T15:40:47;12.20;99.90
9881;DHT22;4979;51.014;6.678;2024-02-14T15:43:13;12.30;99.90
9881;DHT22;4979;51.014;6.678;2024-02-14T15:45:39;12.30;99.90
9881;DHT22;4979;51.014;6.678;2024-02-14T15:48:05;12.30;99.90
9881;DHT22;4979;51.014;6.678;2024-02-14T15:50:32;12.30;99.90
9881;DHT22;4979;51.014;6.678;2024-02-14T15:52:58;12.30;99.90
9881;DHT22;4979;51.014;6.678;2024-02-14T15:55:23;12.30;99.90
9881;DHT22;4979;51.014;6.678;2024-02-14T15:57:49;12.30;99.90
9881;DHT22;4979;51.014;6.678;2024-02-14T16:00:15;12.30;99.90
9881;DHT22;4979;51.014;6.678;2024-02-14T16:02:40;12.30;99.90
9881;DHT22;4979;51.014;6.678;2024-02-14T16:05:07;12.40;99.90